Terminal Aerodrome Forecast
Issued by NWS Bismarck, ND

Home | Current Version | Previous Version | Text Only | Print | Product List | Glossary On
Versions: 1 2 3 4 5 6 7 8 9 10 11 12 13 14 15 16
000
FTUS43 KBIS 061700
TAFISN
TAF
KISN 061735Z 0618/0718 26011KT P6SM OVC080
     FM070000 29011KT P6SM OVC080
     FM070600 31009KT P6SM OVC020
     FM071400 26008KT P6SM OVC020=

USA.gov is the U.S. government's official web portal to all federal, state and local government web resources and services.